Aérodrome :
LOGIN :

S'inscrire | Disclaimer

   EN    FR    IT 

 










Légende :    VFR   VFR Marginal   IFR   IFR Intensif   IFR Très Intensif
Visi : 
Plafond : 
>= 8 km
>= 3000ft
5 à 8 km
1000 à 3000 ft
1500m à 5 km
500 à 1000 ft
800 à 1500m
200 à 500 ft
< 800m
< 200 ft
Symboles :   Orages  Brouillard  Fortes neiges  Fortes précipitations  Vent > 20 kt
SIGMETs :   Divers  Orages  Givrage  Turbulence  Onde Orograph.  Cendres Volcan.






- Altitude de l'aérodrome : 113 ft


EKRS - Ringsted

DERNIER METAR :
  • 090950Z AUTO 23014G27KT 150V320 9999 BKN018/// BKN026/// OVC035/// 07/06 Q0990

METARs EXPIRÉS :
  • 090920Z AUTO 23014G25KT 180V270 9999 BKN018/// BKN026/// 07/06 Q0990
  • 090850Z AUTO 23014G28KT 170V310 9999 UP FEW019/// OVC026/// 06/06 Q0990
  • 090820Z AUTO 23014KT 140V270 9999 SCT018/// BKN025/// 06/05 Q0990
  • 090750Z AUTO 23012KT 170V280 9999 BKN018/// BKN024/// 06/05 Q0989
  • 090720Z AUTO 23011G22KT 150V280 9999 SCT018/// BKN025/// BKN032/// 06/05 Q0989

TAF N/A



MET'MAP, la Météo Aéronautique d'un coup d'oeil ! - Copyright ORBIFLY Décembre 2007 - Disclaimer

ORBIFLY MET'MAP TEAM :

Programmation & Développement : Alexandra Zaïnal
Sur une idée originale de : Baudouin d'Aumeries
Assistance à la programmation : Marc-Olivier Méhu
Soutien technique & logistique : Manuel Goepfert

Contact : metmap@orbifly.com




SOURCES & CREDITS :

   NOAA